createdAt,value
2017-08-10T00:00:11.950Z,104.1
2017-08-10T00:01:11.533Z,104.9
2017-08-10T00:02:10.999Z,105.1
2017-08-10T00:03:09.954Z,104.6
2017-08-10T00:04:09.297Z,102.6
2017-08-10T00:05:08.898Z,102.4
2017-08-10T00:06:08.094Z,102.9
2017-08-10T00:07:07.679Z,103.9
2017-08-10T00:08:06.868Z,104.3
2017-08-10T00:09:06.216Z,105
2017-08-10T00:10:05.476Z,105.1
2017-08-10T00:11:04.546Z,105.2
2017-08-10T00:12:04.012Z,105.2
2017-08-10T00:13:03.594Z,105.4
2017-08-10T00:14:02.805Z,105.9
2017-08-10T00:15:02.000Z,105.6
2017-08-10T00:16:01.226Z,105.6
2017-08-10T00:17:00.802Z,105.8
2017-08-10T00:17:59.875Z,106
2017-08-10T00:18:59.096Z,105.6
2017-08-10T00:19:58.800Z,105.7
2017-08-10T00:20:57.993Z,106
2017-08-10T00:21:57.178Z,106.5
2017-08-10T00:22:27.562Z,106.5
2017-08-10T00:23:55.936Z,107.2
2017-08-10T00:24:55.016Z,106.6
2017-08-10T00:25:54.226Z,106.4
2017-08-10T00:26:53.803Z,105.9
2017-08-10T00:27:52.882Z,106.2
2017-08-10T00:28:52.477Z,106.7
2017-08-10T00:29:51.566Z,105.4
2017-08-10T00:30:50.780Z,105.6
2017-08-10T00:31:50.361Z,106
2017-08-10T00:32:49.828Z,106.8
2017-08-10T00:33:20.323Z,106.8
2017-08-10T00:34:48.111Z,106.6
2017-08-10T00:36:46.704Z,107.5
2017-08-10T00:37:46.187Z,107.7
2017-08-10T00:38:45.273Z,107.5
2017-08-10T00:39:44.861Z,107.3
2017-08-10T00:40:44.064Z,107.6
2017-08-10T00:41:43.145Z,105.6
2017-08-10T00:42:42.491Z,105.8
2017-08-10T00:43:42.073Z,105.9
2017-08-10T00:44:41.425Z,106.2
2017-08-10T00:45:40.636Z,106.2
2017-08-10T00:46:39.878Z,106.7
2017-08-10T00:47:39.072Z,107.2
2017-08-10T00:48:38.137Z,107.3
2017-08-10T00:49:37.845Z,107.2
2017-08-10T00:50:37.041Z,107.6
2017-08-10T00:51:36.120Z,108.2
2017-08-10T00:52:35.694Z,108.3
2017-08-10T00:53:34.770Z,107.5
2017-08-10T00:54:34.346Z,107.1
2017-08-10T00:55:33.527Z,107.8
2017-08-10T00:56:32.607Z,107.3
2017-08-10T00:57:31.878Z,107.7
2017-08-10T00:58:31.586Z,106.8
2017-08-10T01:00:30.188Z,107.3
2017-08-10T01:01:29.393Z,106.9
2017-08-10T01:02:28.588Z,107.8
2017-08-10T01:03:27.657Z,108.4
2017-08-10T01:04:27.239Z,108.3
2017-08-10T01:05:26.210Z,108.2
2017-08-10T01:06:25.680Z,108.4
2017-08-10T01:07:24.869Z,108.3
2017-08-10T01:08:24.057Z,107.8
2017-08-10T01:09:23.751Z,108.4
2017-08-10T01:10:22.947Z,108.2
2017-08-10T01:11:22.149Z,107.8
2017-08-10T01:11:52.554Z,107.8
2017-08-10T01:12:22.824Z,108.9
2017-08-10T01:12:53.209Z,108.9
2017-08-10T01:13:23.713Z,109.2
2017-08-10T01:13:54.221Z,109.2
2017-08-10T01:14:24.495Z,109.5
2017-08-10T01:14:55.008Z,109.5
2017-08-10T01:15:25.292Z,108.5
2017-08-10T01:15:55.798Z,108.5
2017-08-10T01:18:17.301Z,107.1
2017-08-10T01:19:16.509Z,106.8
2017-08-10T01:20:15.578Z,107.5
2017-08-10T01:21:15.262Z,107.4
2017-08-10T01:22:14.354Z,108
2017-08-10T01:23:13.540Z,107.6
2017-08-10T01:24:12.736Z,107.6
2017-08-10T01:25:12.292Z,107.4
2017-08-10T01:26:11.353Z,107.4
2017-08-10T01:27:10.692Z,107.7
2017-08-10T01:28:09.771Z,108.2
2017-08-10T01:29:09.354Z,107.6
2017-08-10T01:31:07.929Z,108
2017-08-10T01:32:07.371Z,108.3
2017-08-10T01:33:06.476Z,108.1
2017-08-10T01:34:05.664Z,107.9
2017-08-10T01:36:04.256Z,108.1
2017-08-10T01:37:03.450Z,108.1
2017-08-10T01:38:02.897Z,108.4
2017-08-10T01:39:01.860Z,108.3
2017-08-10T01:40:01.562Z,108.6
2017-08-10T01:41:00.421Z,108.4
2017-08-10T01:41:59.993Z,108.3
2017-08-10T01:42:59.455Z,108.8
2017-08-10T01:43:58.680Z,108.5
2017-08-10T01:44:29.068Z,108.5
2017-08-10T01:44:59.575Z,108.5
2017-08-10T01:45:57.279Z,108.6
2017-08-10T01:46:56.341Z,108.4
2017-08-10T01:47:55.433Z,108.1
2017-08-10T01:48:54.894Z,108.7
2017-08-10T01:49:54.350Z,108.7
2017-08-10T01:50:53.690Z,108.2
2017-08-10T01:51:52.895Z,108.2
2017-08-10T01:53:51.363Z,108.2
2017-08-10T01:54:50.562Z,108.5
2017-08-10T01:55:49.757Z,108.6
2017-08-10T01:56:49.348Z,108.7
2017-08-10T01:57:48.548Z,108
2017-08-10T01:58:47.729Z,108.2
2017-08-10T01:59:46.807Z,108.3
2017-08-10T02:00:46.029Z,108.2
2017-08-10T02:01:45.728Z,108.1
2017-08-10T02:02:44.811Z,108.8
2017-08-10T02:03:44.006Z,108.8
2017-08-10T02:04:43.198Z,109.1
2017-08-10T02:05:13.706Z,109.1
2017-08-10T02:05:44.102Z,108.6
2017-08-10T02:06:42.071Z,108
2017-08-10T02:07:41.273Z,108.1
2017-08-10T02:08:40.355Z,108.3
2017-08-10T02:09:39.934Z,108.9
2017-08-10T02:10:10.448Z,108.9
2017-08-10T02:10:40.945Z,108.3
2017-08-10T02:11:38.390Z,109
2017-08-10T02:12:37.572Z,109.1
2017-08-10T02:13:36.644Z,109.1
2017-08-10T02:14:36.226Z,108.8
2017-08-10T02:15:35.424Z,108.8
2017-08-10T02:16:34.611Z,108.1
2017-08-10T02:17:33.831Z,108.4
2017-08-10T02:18:33.016Z,108.5
2017-08-10T02:19:32.485Z,108.9
2017-08-10T02:20:02.999Z,108.9
2017-08-10T02:20:33.265Z,109
2017-08-10T02:21:03.654Z,109
2017-08-10T02:21:34.173Z,108.7
2017-08-10T02:22:30.347Z,108.6
2017-08-10T02:24:01.040Z,108.9
2017-08-10T02:25:28.282Z,108.3
2017-08-10T02:26:27.489Z,108.4
2017-08-10T02:27:26.680Z,108.7
2017-08-10T02:28:25.858Z,109.3
2017-08-10T02:29:25.432Z,109.4
2017-08-10T02:30:24.511Z,109.4
2017-08-10T02:31:23.962Z,109.1
2017-08-10T02:32:23.159Z,109.8
2017-08-10T02:33:22.343Z,108.8
2017-08-10T02:34:21.517Z,109.1
2017-08-10T02:35:20.700Z,109.1
2017-08-10T02:36:20.277Z,109.4
2017-08-10T02:37:19.493Z,109.6
2017-08-10T02:38:18.682Z,109.6
2017-08-10T02:39:17.850Z,110.2
2017-08-10T02:40:17.040Z,110.2
2017-08-10T02:41:16.620Z,110.3
2017-08-10T02:42:15.683Z,110
2017-08-10T02:43:14.867Z,109.6
2017-08-10T02:44:14.572Z,109.4
2017-08-10T02:45:13.530Z,109.7
2017-08-10T02:46:12.712Z,109.3
2017-08-10T02:47:12.187Z,109.4
2017-08-10T02:48:11.370Z,110
2017-08-10T02:49:10.935Z,110.6
2017-08-10T02:50:10.005Z,110
2017-08-10T02:51:09.064Z,109.4
2017-08-10T02:52:08.654Z,109.7
2017-08-10T02:53:07.725Z,110
2017-08-10T02:54:07.281Z,110
2017-08-10T02:55:06.476Z,109.9
2017-08-10T02:56:05.658Z,109.5
2017-08-10T02:57:04.723Z,109.2
2017-08-10T02:58:04.420Z,109.4
2017-08-10T02:59:03.482Z,109
2017-08-10T02:59:33.888Z,109
2017-08-10T03:00:04.381Z,108.8
2017-08-10T03:00:34.886Z,108.8
2017-08-10T03:01:05.382Z,108.9
2017-08-10T03:01:35.767Z,108.9
2017-08-10T03:02:06.261Z,108.2
2017-08-10T03:02:36.625Z,108.2
2017-08-10T03:03:07.130Z,108.2
2017-08-10T03:03:37.632Z,108.2
2017-08-10T03:04:58.963Z,108.9
2017-08-10T03:06:57.518Z,108.2
2017-08-10T03:07:57.070Z,108
2017-08-10T03:08:56.020Z,108
2017-08-10T03:09:55.713Z,108.5
2017-08-10T03:10:54.896Z,108.3
2017-08-10T03:11:54.096Z,108.1
2017-08-10T03:12:53.289Z,108.1
2017-08-10T03:13:23.668Z,108.1
2017-08-10T03:14:51.931Z,107.7
2017-08-10T03:15:50.995Z,107.5
2017-08-10T03:16:50.442Z,107.7
2017-08-10T03:17:49.511Z,107.4
2017-08-10T03:19:48.075Z,107.2
2017-08-10T03:20:47.745Z,107.6
2017-08-10T03:21:46.818Z,107.2
2017-08-10T03:22:46.140Z,107.3
2017-08-10T03:23:45.091Z,106.8
2017-08-10T03:24:44.785Z,106.7
2017-08-10T03:25:43.858Z,106.7
2017-08-10T03:26:43.303Z,106.7
2017-08-10T03:27:42.366Z,106.6
2017-08-10T03:28:41.942Z,106.7
2017-08-10T03:29:41.121Z,107
2017-08-10T03:30:40.332Z,106.9
2017-08-10T03:31:39.567Z,106.9
2017-08-10T03:32:10.065Z,106.9
2017-08-10T03:33:37.952Z,106.2
2017-08-10T03:34:37.626Z,106.3
2017-08-10T03:35:36.684Z,106.9
2017-08-10T03:36:35.856Z,106.9
2017-08-10T03:37:35.040Z,106.5
2017-08-10T03:38:34.372Z,106.7
2017-08-10T03:39:33.564Z,106.8
2017-08-10T03:40:32.907Z,106.9
2017-08-10T03:41:32.374Z,107.3
2017-08-10T03:42:31.548Z,107.3
2017-08-10T03:43:30.734Z,107.3
2017-08-10T03:44:30.417Z,107.6
2017-08-10T03:45:29.604Z,107.4
2017-08-10T03:46:28.775Z,107.1
2017-08-10T03:47:27.960Z,107.2
2017-08-10T03:48:27.143Z,108.1
2017-08-10T03:49:26.717Z,108.4
2017-08-10T03:50:25.775Z,108.3
2017-08-10T03:51:24.954Z,107.5
2017-08-10T03:52:24.527Z,108.3
2017-08-10T03:53:23.709Z,108.9
2017-08-10T03:53:54.206Z,108.9
2017-08-10T03:54:24.583Z,108.9
2017-08-10T03:55:22.256Z,109.3
2017-08-10T03:56:21.719Z,109.5
2017-08-10T03:57:20.886Z,109.8
2017-08-10T03:58:20.337Z,110
2017-08-10T03:59:19.404Z,109.9
2017-08-10T04:00:18.588Z,109.8
2017-08-10T04:01:18.036Z,110.1
2017-08-10T04:02:17.229Z,110.5
2017-08-10T04:03:16.404Z,110.8
2017-08-10T04:04:15.979Z,111.1
2017-08-10T04:05:15.055Z,111
2017-08-10T04:06:14.507Z,111.4
2017-08-10T04:07:13.680Z,111.6
2017-08-10T04:08:12.767Z,112
2017-08-10T04:09:11.933Z,112.2
2017-08-10T04:10:11.511Z,112.5
2017-08-10T04:11:10.571Z,112.7
2017-08-10T04:12:10.028Z,112.8
2017-08-10T04:13:09.210Z,113
2017-08-10T04:14:08.535Z,112.4
2017-08-10T04:15:07.870Z,112.2
2017-08-10T04:16:06.950Z,112.4
2017-08-10T04:17:06.094Z,112.7
2017-08-10T04:18:05.775Z,113.2
2017-08-10T04:19:04.843Z,113.7
2017-08-10T04:20:04.059Z,113.8
2017-08-10T04:21:03.643Z,114
2017-08-10T04:22:02.711Z,114
2017-08-10T04:23:02.029Z,113.5
2017-08-10T04:24:01.213Z,113.5
2017-08-10T04:25:00.404Z,114.2
2017-08-10T04:25:59.961Z,114
2017-08-10T04:26:58.917Z,114.4
2017-08-10T04:27:58.471Z,114.8
2017-08-10T04:28:57.410Z,114.9
2017-08-10T04:29:57.109Z,115.2
2017-08-10T04:30:56.180Z,115.2
2017-08-10T04:31:55.521Z,115.2
2017-08-10T04:32:54.699Z,115.2
2017-08-10T04:33:53.880Z,115.4
2017-08-10T04:34:53.060Z,115.7
2017-08-10T04:35:52.736Z,115.9
2017-08-10T04:36:51.930Z,116
2017-08-10T04:37:51.000Z,116.2
2017-08-10T04:38:50.448Z,116.4
2017-08-10T04:40:49.026Z,116.5
2017-08-10T04:41:47.985Z,116.6
2017-08-10T04:42:47.560Z,116.2
2017-08-10T04:43:46.749Z,115.7
2017-08-10T04:44:45.812Z,115.7
2017-08-10T04:45:45.384Z,116
2017-08-10T04:46:44.329Z,116.1
2017-08-10T04:47:43.660Z,116.2
2017-08-10T04:48:14.159Z,116.2
2017-08-10T04:48:44.560Z,116.3
2017-08-10T04:49:15.062Z,116.3
2017-08-10T04:49:45.561Z,116.5
2017-08-10T04:50:16.047Z,116.5
2017-08-10T04:51:40.782Z,117
2017-08-10T04:52:39.978Z,116.6
2017-08-10T04:53:39.674Z,116.1
2017-08-10T04:54:38.621Z,116.2
2017-08-10T04:55:37.811Z,115.9
2017-08-10T04:56:37.489Z,115.7
2017-08-10T04:57:36.676Z,115.8
2017-08-10T04:58:35.863Z,116.2
2017-08-10T04:59:34.932Z,116.4
2017-08-10T05:00:34.498Z,116.8
2017-08-10T05:01:33.466Z,116.6
2017-08-10T05:02:32.646Z,116.4
2017-08-10T05:03:31.981Z,116.5
2017-08-10T05:04:31.170Z,116.7
2017-08-10T05:05:30.868Z,116.8
2017-08-10T05:06:30.050Z,116.8
2017-08-10T05:07:29.222Z,117
2017-08-10T05:07:59.738Z,117
2017-08-10T05:08:30.231Z,117.2
2017-08-10T05:09:00.615Z,117.2
2017-08-10T05:10:26.860Z,117.1
2017-08-10T05:11:26.422Z,116.9
2017-08-10T05:12:25.487Z,116.9
2017-08-10T05:13:24.670Z,117
2017-08-10T05:14:23.846Z,116.9
2017-08-10T05:15:23.548Z,116.7
2017-08-10T05:16:22.615Z,116.8
2017-08-10T05:17:21.788Z,116.8
2017-08-10T05:18:21.357Z,116.7
2017-08-10T05:18:51.606Z,116.7
2017-08-10T05:19:21.872Z,116.8
2017-08-10T05:19:52.116Z,116.8
2017-08-10T05:20:22.480Z,116.4
2017-08-10T05:20:52.723Z,116.4
2017-08-10T05:21:23.234Z,116.5
2017-08-10T05:21:53.614Z,116.5
2017-08-10T05:23:17.462Z,116.7
2017-08-10T05:24:16.532Z,116.9
2017-08-10T05:25:16.207Z,117
2017-08-10T05:26:15.277Z,117.1
2017-08-10T05:27:14.473Z,117.2
2017-08-10T05:28:13.657Z,117.1
2017-08-10T05:29:13.221Z,117.1
2017-08-10T05:30:12.273Z,117.1
2017-08-10T05:31:11.462Z,117.2
2017-08-10T05:32:10.646Z,117.3
2017-08-10T05:33:10.345Z,117.4
2017-08-10T05:34:09.301Z,117.4
2017-08-10T05:35:08.257Z,117.6
2017-08-10T05:36:07.600Z,117.6
2017-08-10T05:37:07.160Z,117.6
2017-08-10T05:38:06.213Z,117.6
2017-08-10T05:39:05.910Z,117.6
2017-08-10T05:40:05.086Z,117.7
2017-08-10T05:41:04.050Z,117.8
2017-08-10T05:42:03.235Z,118.1
2017-08-10T05:43:02.678Z,118.3
2017-08-10T05:45:01.250Z,118.5
2017-08-10T05:46:00.324Z,118.7
2017-08-10T05:46:59.878Z,118.8
2017-08-10T05:47:58.831Z,-6
2017-08-10T05:48:58.513Z,-5.8
2017-08-10T05:49:57.477Z,-5.7
2017-08-10T05:50:56.533Z,-5.6
2017-08-10T05:51:55.815Z,-5.5
2017-08-10T05:52:55.380Z,-5.4
2017-08-10T05:53:54.439Z,-5.3
2017-08-10T05:54:53.623Z,-5.3
2017-08-10T05:55:53.190Z,-5.4
2017-08-10T05:56:52.401Z,-5.5
2017-08-10T05:57:51.474Z,-5.4
2017-08-10T05:58:50.672Z,-5.4
2017-08-10T05:59:50.225Z,-5.4
2017-08-10T06:00:20.893Z,-5.4
2017-08-10T06:00:51.266Z,-5.3
2017-08-10T06:01:21.649Z,-5.3
2017-08-10T06:01:52.021Z,-5.4
2017-08-10T06:02:47.941Z,-5.4
2017-08-10T06:03:47.013Z,-5.3
2017-08-10T06:04:46.198Z,-5.2
2017-08-10T06:05:45.880Z,-5.1
2017-08-10T06:06:44.952Z,-5.1
2017-08-10T06:07:44.017Z,-4.9
2017-08-10T06:08:43.577Z,-4.7
2017-08-10T06:09:42.923Z,-4.6
2017-08-10T06:11:41.391Z,-4.4
2017-08-10T06:12:40.577Z,-4.4
2017-08-10T06:13:39.653Z,-4.2
2017-08-10T06:14:39.215Z,-4.2
2017-08-10T06:15:38.393Z,-4.1
2017-08-10T06:16:08.891Z,-4.1
2017-08-10T06:16:39.147Z,-4
2017-08-10T06:17:36.846Z,-4
2017-08-10T06:18:35.909Z,-3.9
2017-08-10T06:19:35.634Z,-3.8
2017-08-10T06:20:34.704Z,-3.7
2017-08-10T06:21:33.891Z,-3.5
2017-08-10T06:22:33.333Z,-3.4
2017-08-10T06:23:32.408Z,-3.4
2017-08-10T06:24:31.588Z,-3.4
2017-08-10T06:25:31.068Z,-3.4
2017-08-10T06:26:30.247Z,-3.4
2017-08-10T06:27:29.432Z,-3.3
2017-08-10T06:28:28.877Z,-3.2
2017-08-10T06:29:27.952Z,-3.1
2017-08-10T06:30:27.135Z,-3
2017-08-10T06:31:26.323Z,-2.9
2017-08-10T06:32:26.017Z,-2.8
2017-08-10T06:33:25.205Z,-2.8
2017-08-10T06:34:24.397Z,-2.8
2017-08-10T06:36:22.854Z,-2.6
2017-08-10T06:36:53.353Z,-2.6
2017-08-10T06:37:23.614Z,-2.8
2017-08-10T06:37:54.117Z,-2.8
2017-08-10T06:39:20.393Z,-3
2017-08-10T06:40:19.972Z,-2.9
2017-08-10T06:41:18.917Z,-2.9
2017-08-10T06:42:18.612Z,-3
2017-08-10T06:43:17.680Z,-2.9
2017-08-10T06:44:16.747Z,-2.9
2017-08-10T06:45:16.455Z,-2.7
2017-08-10T06:46:15.530Z,-2.7
2017-08-10T06:47:14.601Z,-2.7
2017-08-10T06:49:13.447Z,-2.4
2017-08-10T06:50:12.638Z,-2.4
2017-08-10T06:51:11.698Z,-2.4
2017-08-10T06:53:10.406Z,-2.5
2017-08-10T06:54:09.460Z,-2.4
2017-08-10T06:55:09.013Z,-2.5
2017-08-10T06:55:39.272Z,-2.5
2017-08-10T06:56:09.644Z,-2.3
2017-08-10T06:56:40.160Z,-2.3
2017-08-10T06:57:10.419Z,-2.2
2017-08-10T06:58:06.483Z,-2.2
2017-08-10T06:59:06.170Z,-2.2
2017-08-10T07:00:05.265Z,-2.2
2017-08-10T07:01:04.599Z,-2.7
2017-08-10T07:02:03.790Z,-3.2
2017-08-10T07:03:02.983Z,-3.5
2017-08-10T07:04:02.171Z,-3.4
2017-08-10T07:05:01.342Z,-3.2
2017-08-10T07:05:31.716Z,-3.2
2017-08-10T07:06:02.094Z,-3.1
2017-08-10T07:06:32.581Z,-3.1
2017-08-10T07:07:02.969Z,-3.5
2017-08-10T07:07:33.222Z,-3.5
2017-08-10T07:08:03.724Z,-3.4
2017-08-10T07:08:34.109Z,-3.4
2017-08-10T07:09:04.879Z,-3.4
2017-08-10T07:09:35.373Z,-3.4
2017-08-10T07:10:57.086Z,-3.8
2017-08-10T07:11:56.133Z,-3.7
2017-08-10T07:12:55.706Z,-3.9
2017-08-10T07:13:54.899Z,-3.9
2017-08-10T07:14:54.080Z,-4.3
2017-08-10T07:15:53.155Z,-4.3
2017-08-10T07:16:52.845Z,-4.2
2017-08-10T07:17:52.049Z,-4.1
2017-08-10T07:18:51.108Z,-3.9
2017-08-10T07:19:50.597Z,-3.8
2017-08-10T07:20:49.651Z,-3.7
2017-08-10T07:21:49.228Z,-3.6
2017-08-10T07:22:48.427Z,-3.5
2017-08-10T07:23:47.491Z,-3.4
2017-08-10T07:24:46.673Z,-3.4
2017-08-10T07:25:45.866Z,-3.4
2017-08-10T07:26:45.554Z,-3.5
2017-08-10T07:27:44.740Z,-4
2017-08-10T07:28:43.819Z,-3.9
2017-08-10T07:29:43.384Z,-3.8
2017-08-10T07:30:42.458Z,-3.9
2017-08-10T07:31:41.537Z,-4.1
2017-08-10T07:32:40.722Z,-4.3
2017-08-10T07:33:40.418Z,-4.6
2017-08-10T07:34:39.624Z,-4.8
2017-08-10T07:35:38.560Z,-4.7
2017-08-10T07:36:38.251Z,-4.4
2017-08-10T07:37:37.328Z,-4.2
2017-08-10T07:38:36.528Z,-3.9
2017-08-10T07:39:35.586Z,-3.7
2017-08-10T07:40:35.161Z,-3.7
2017-08-10T07:41:34.344Z,-3.6
2017-08-10T07:42:33.410Z,-3.5
2017-08-10T07:43:32.984Z,-3.8
2017-08-10T07:44:32.163Z,-3.6
2017-08-10T07:45:31.234Z,-3.3
2017-08-10T07:46:30.807Z,-3.2
2017-08-10T07:47:29.749Z,-3.2
2017-08-10T07:48:00.248Z,-3.2
2017-08-10T07:48:30.654Z,-3
2017-08-10T07:49:01.153Z,-3
2017-08-10T07:50:27.530Z,-3.9
2017-08-10T07:51:27.088Z,-3.7
2017-08-10T07:52:26.049Z,-3.5
2017-08-10T07:53:25.619Z,-3.2
2017-08-10T07:54:24.808Z,-3
2017-08-10T07:55:24.028Z,-2.8
2017-08-10T07:56:23.252Z,-2.7
2017-08-10T07:57:22.822Z,-2.6
2017-08-10T07:58:22.010Z,-2.5
2017-08-10T07:58:52.502Z,-2.5
2017-08-10T07:59:22.884Z,-2.3
2017-08-10T08:00:20.198Z,-2.1
2017-08-10T08:01:19.879Z,-1.9
2017-08-10T08:02:18.948Z,-1.7
2017-08-10T08:03:18.136Z,-1.6
2017-08-10T08:03:48.624Z,-1.6
2017-08-10T08:05:16.901Z,-1.6
2017-08-10T08:06:16.076Z,-1.7
2017-08-10T08:07:15.271Z,-1.7
2017-08-10T08:08:14.353Z,-1.8
2017-08-10T08:09:13.912Z,-1.7
2017-08-10T08:10:12.966Z,-1.9
2017-08-10T08:11:12.545Z,-1.7
2017-08-10T08:12:11.724Z,-2.1
2017-08-10T08:13:10.787Z,-2.4
2017-08-10T08:14:10.344Z,-2.6
2017-08-10T08:15:09.404Z,-3.4
2017-08-10T08:16:08.356Z,-3.3
2017-08-10T08:17:07.818Z,-3.6
2017-08-10T08:18:06.884Z,-3.7
2017-08-10T08:19:06.579Z,-4.1
2017-08-10T08:20:05.766Z,-4
2017-08-10T08:21:04.830Z,-4.3
2017-08-10T08:22:04.407Z,-4.9
2017-08-10T08:23:03.355Z,-4.9
2017-08-10T08:24:02.813Z,-4.4
2017-08-10T08:25:01.993Z,-4.2
2017-08-10T08:26:01.550Z,-4.5
2017-08-10T08:27:00.732Z,-5.4
2017-08-10T08:27:59.790Z,118.9
2017-08-10T08:28:59.136Z,118.8
2017-08-10T08:29:58.591Z,-5.4
2017-08-10T08:30:57.657Z,-4.8
2017-08-10T08:31:57.217Z,-5.6
2017-08-10T08:32:56.404Z,118.9
2017-08-10T08:33:55.476Z,-5.3
2017-08-10T08:34:54.660Z,-5.1
2017-08-10T08:35:54.335Z,-5.5
2017-08-10T08:36:53.509Z,-5.1
2017-08-10T08:37:52.690Z,-4.9
2017-08-10T08:38:52.124Z,-4.8
2017-08-10T08:39:51.198Z,-4.4
2017-08-10T08:40:50.384Z,-4.2
2017-08-10T08:41:49.557Z,-4.2
2017-08-10T08:42:49.125Z,-4.9
2017-08-10T08:43:48.070Z,-5
2017-08-10T08:44:47.758Z,-5
2017-08-10T08:45:46.930Z,-4.9
2017-08-10T08:46:46.142Z,-4.9
2017-08-10T08:48:44.719Z,-5.4
2017-08-10T08:49:43.789Z,-5
2017-08-10T08:50:42.972Z,-5.9
2017-08-10T08:51:42.649Z,-5.4
2017-08-10T08:52:41.838Z,-5.1
2017-08-10T08:53:11.970Z,-5.1
2017-08-10T08:53:42.338Z,-4.9
2017-08-10T08:54:12.717Z,-4.9
2017-08-10T08:54:43.211Z,-4.6
2017-08-10T08:55:13.706Z,-4.6
2017-08-10T08:55:43.952Z,118.8
2017-08-10T08:56:14.342Z,118.8
2017-08-10T08:56:44.713Z,118.8
2017-08-10T08:57:15.107Z,118.8
2017-08-10T08:58:37.317Z,118
2017-08-10T08:59:36.515Z,118.3
2017-08-10T09:00:36.082Z,118.3
2017-08-10T09:01:35.536Z,118.4
2017-08-10T09:02:34.612Z,118
2017-08-10T09:03:33.792Z,118.4
2017-08-10T09:04:32.982Z,118.5
2017-08-10T09:05:32.165Z,118.4
2017-08-10T09:06:31.854Z,118
2017-08-10T09:07:30.908Z,118.5
2017-08-10T09:08:30.097Z,118.4
2017-08-10T09:09:29.570Z,118.8
2017-08-10T09:10:28.631Z,-5.5
2017-08-10T09:11:28.098Z,-5.6
2017-08-10T09:12:27.158Z,-5.7
2017-08-10T09:13:26.485Z,118.1
2017-08-10T09:14:26.169Z,118
2017-08-10T09:15:25.349Z,118.4
2017-08-10T09:16:24.532Z,117.4
2017-08-10T09:17:23.712Z,117.1
2017-08-10T09:18:23.286Z,116.2
2017-08-10T09:19:22.358Z,116.1
2017-08-10T09:20:21.541Z,115.5
2017-08-10T09:21:21.114Z,115.4
2017-08-10T09:22:20.061Z,115.9
2017-08-10T09:23:19.639Z,116
2017-08-10T09:24:18.697Z,116.7
2017-08-10T09:25:18.275Z,117.3
2017-08-10T09:26:17.453Z,116.7
2017-08-10T09:27:16.642Z,117
2017-08-10T09:28:15.602Z,115.3
2017-08-10T09:29:15.061Z,116
2017-08-10T09:30:14.387Z,115.8
2017-08-10T09:31:13.568Z,115
2017-08-10T09:32:13.132Z,115.4
2017-08-10T09:33:12.196Z,115.2
2017-08-10T09:34:11.522Z,115.6
2017-08-10T09:34:41.890Z,115.6
2017-08-10T09:35:12.263Z,115.8
2017-08-10T09:35:42.660Z,115.8
2017-08-10T09:37:09.523Z,116.2
2017-08-10T09:38:08.596Z,115.7
2017-08-10T09:39:08.156Z,115.2
2017-08-10T09:40:07.337Z,116
2017-08-10T09:41:06.535Z,116.4
2017-08-10T09:42:05.978Z,117.2
2017-08-10T09:43:05.080Z,116.9
2017-08-10T09:44:04.791Z,117.3
2017-08-10T09:45:03.748Z,117
2017-08-10T09:46:02.929Z,116.7
2017-08-10T09:46:33.132Z,116.7
2017-08-10T09:47:03.623Z,117.2
2017-08-10T09:47:34.121Z,117.2
2017-08-10T09:48:04.768Z,117.5
2017-08-10T09:49:00.820Z,117.4
2017-08-10T09:50:00.388Z,116.7
2017-08-10T09:50:59.478Z,117.3
2017-08-10T09:51:58.666Z,117.5
2017-08-10T09:52:58.347Z,116
2017-08-10T09:53:57.527Z,115.8
2017-08-10T09:54:56.480Z,116.3
2017-08-10T09:55:56.173Z,116.6
2017-08-10T09:56:55.363Z,116
2017-08-10T09:57:54.429Z,116.2
2017-08-10T09:58:53.989Z,117.2
2017-08-10T09:59:53.172Z,117.4
2017-08-10T10:00:52.499Z,117.3
2017-08-10T10:01:52.091Z,116.8
2017-08-10T10:02:51.051Z,116.4
2017-08-10T10:03:50.229Z,117.3
2017-08-10T10:04:49.681Z,116.5
2017-08-10T10:05:48.863Z,115
2017-08-10T10:06:48.442Z,114.2
2017-08-10T10:07:18.820Z,114.2
2017-08-10T10:07:49.318Z,115.1
2017-08-10T10:08:46.748Z,115.5
2017-08-10T10:09:46.453Z,115.9
2017-08-10T10:10:45.418Z,115
2017-08-10T10:11:44.547Z,114.9
2017-08-10T10:12:44.101Z,115
2017-08-10T10:13:43.550Z,114.7
2017-08-10T10:14:42.727Z,114.5
2017-08-10T10:15:42.184Z,114.1
2017-08-10T10:16:41.379Z,114.4
2017-08-10T10:17:40.464Z,112.4
2017-08-10T10:18:40.161Z,112.9
2017-08-10T10:19:39.218Z,113
2017-08-10T10:20:38.400Z,113.8
2017-08-10T10:21:37.848Z,114.6
2017-08-10T10:22:37.056Z,116.2
2017-08-10T10:23:36.118Z,117
2017-08-10T10:24:35.560Z,115
2017-08-10T10:25:35.132Z,114
2017-08-10T10:26:34.090Z,115
2017-08-10T10:27:33.768Z,116.4
2017-08-10T10:28:32.959Z,116.7
2017-08-10T10:29:32.148Z,117.6
2017-08-10T10:30:31.342Z,118.1
2017-08-10T10:31:30.794Z,117.4
2017-08-10T10:32:30.359Z,116.4
2017-08-10T10:33:29.299Z,114.9
2017-08-10T10:34:28.639Z,114.3
2017-08-10T10:35:27.815Z,113.9
2017-08-10T10:36:27.374Z,113.6
2017-08-10T10:37:26.440Z,113.6
2017-08-10T10:38:26.010Z,113.7
2017-08-10T10:39:25.208Z,112.1
2017-08-10T10:40:24.407Z,113.1
2017-08-10T10:41:23.994Z,113.7
2017-08-10T10:41:54.425Z,113.7
2017-08-10T10:42:24.685Z,112.7
2017-08-10T10:42:55.194Z,112.7
2017-08-10T10:43:25.693Z,111.4
2017-08-10T10:43:56.071Z,111.4
2017-08-10T10:45:20.919Z,112.1
2017-08-10T10:46:20.398Z,113.4
2017-08-10T10:47:19.589Z,115
2017-08-10T10:48:19.147Z,115.5
2017-08-10T10:49:18.097Z,112.7
2017-08-10T10:50:17.678Z,111.9
2017-08-10T10:51:16.753Z,112.4
2017-08-10T10:52:16.208Z,109.4
2017-08-10T10:53:15.782Z,110.1
2017-08-10T10:54:14.850Z,110.5
2017-08-10T10:56:13.289Z,110.9
2017-08-10T10:57:12.858Z,110.1
2017-08-10T10:58:12.043Z,108.9
2017-08-10T10:59:11.229Z,111.1
2017-08-10T11:00:10.813Z,111.9
2017-08-10T11:01:09.871Z,111.1
2017-08-10T11:01:40.117Z,111.1
2017-08-10T11:02:10.489Z,108.3
2017-08-10T11:02:40.887Z,108.3
2017-08-10T11:03:11.284Z,109.6
2017-08-10T11:04:07.947Z,108.6
2017-08-10T11:05:07.159Z,108.9
2017-08-10T11:06:06.619Z,108.7
2017-08-10T11:07:05.800Z,108.8
2017-08-10T11:08:04.979Z,106.8
2017-08-10T11:09:04.664Z,107.7
2017-08-10T11:10:03.604Z,109.2
2017-08-10T11:11:03.169Z,107.5
2017-08-10T11:12:02.350Z,107.7
2017-08-10T11:13:01.911Z,107.6
2017-08-10T11:14:00.862Z,109.1
2017-08-10T11:14:31.007Z,109.1
2017-08-10T11:15:01.419Z,109
2017-08-10T11:15:31.813Z,109
2017-08-10T11:16:59.070Z,108.9
2017-08-10T11:17:58.422Z,108.8
2017-08-10T11:18:57.875Z,108.5
2017-08-10T11:19:56.817Z,106.8
2017-08-10T11:20:56.148Z,106.1
2017-08-10T11:21:55.589Z,104.5
2017-08-10T11:22:54.660Z,104.8
2017-08-10T11:23:54.345Z,104.8
2017-08-10T11:24:53.395Z,104.2
2017-08-10T11:25:52.974Z,104.5
2017-08-10T11:26:52.166Z,105.1
2017-08-10T11:27:51.686Z,105.2
2017-08-10T11:28:50.626Z,106
2017-08-10T11:29:50.192Z,106.1
2017-08-10T11:30:49.254Z,104.3
2017-08-10T11:31:48.815Z,105
2017-08-10T11:32:47.883Z,103.1
2017-08-10T11:33:47.587Z,104
2017-08-10T11:34:46.703Z,102.7
2017-08-10T11:35:46.178Z,102.7
2017-08-10T11:36:16.670Z,102.7
2017-08-10T11:36:47.169Z,103.3
2017-08-10T11:37:44.606Z,106
2017-08-10T11:38:44.037Z,107.5
2017-08-10T11:39:43.594Z,104
2017-08-10T11:40:42.656Z,104.2
2017-08-10T11:41:42.239Z,104.9
2017-08-10T11:42:41.206Z,103.6
2017-08-10T11:43:40.781Z,103.6
2017-08-10T11:44:40.016Z,103.8
2017-08-10T11:45:39.308Z,105.3
2017-08-10T11:46:38.770Z,104.1
2017-08-10T11:47:37.949Z,104.9
2017-08-10T11:48:37.516Z,104
2017-08-10T11:49:36.466Z,106.4
2017-08-10T11:50:36.153Z,102.7
2017-08-10T11:51:35.339Z,103.4
2017-08-10T11:52:34.419Z,104.2
2017-08-10T11:53:34.108Z,103.1
2017-08-10T11:54:33.290Z,103
2017-08-10T11:55:03.678Z,103
2017-08-10T11:55:33.823Z,103.3
2017-08-10T11:56:04.105Z,103.3
2017-08-10T11:56:34.509Z,105.9
2017-08-10T11:57:31.190Z,102.8
2017-08-10T11:58:30.499Z,102.2
2017-08-10T11:59:29.957Z,102.1
2017-08-10T12:00:29.168Z,100.8
2017-08-10T12:01:28.736Z,101.7
2017-08-10T12:02:27.803Z,100.8
2017-08-10T12:03:26.990Z,100
2017-08-10T12:04:26.440Z,100
2017-08-10T12:05:25.897Z,99.8
2017-08-10T12:06:25.087Z,100.6
2017-08-10T12:07:24.661Z,99.8
2017-08-10T12:08:23.849Z,99.8
2017-08-10T12:09:23.313Z,98.9
2017-08-10T12:10:22.377Z,100.3
2017-08-10T12:10:52.754Z,100.3
2017-08-10T12:11:23.194Z,98.8
2017-08-10T12:12:21.371Z,98.5
2017-08-10T12:13:20.594Z,97.5
2017-08-10T12:14:20.164Z,97.9
2017-08-10T12:15:19.352Z,98.3
2017-08-10T12:16:18.419Z,97.4
2017-08-10T12:17:18.099Z,96.4
2017-08-10T12:18:17.117Z,95.2
2017-08-10T12:19:16.821Z,94
2017-08-10T12:20:16.007Z,93.3
2017-08-10T12:21:15.204Z,94.6
2017-08-10T12:22:14.662Z,95.4
2017-08-10T12:23:14.108Z,94.7
2017-08-10T12:24:13.311Z,93.6